Time;durP1;ratioP1;P1;durP2;ratioP2;P2;SDS_P1;SDS_P2;PMS_P1;PMS_P2;Temp;Humidity;BMP_temperature;BMP_pressure;BME280_temperature;BME280_humidity;BME280_pressure;Samples;Min_cycle;Max_cycle;Signal;HPM_P1;HPM_P2
2022/09/14 00:00:18;;;;;;;6.57;2.70;;;;;;;19.36;67.33;100770.22;6304023;22;20081;-59
2022/09/14 00:02:45;;;;;;;8.65;2.80;;;;;;;19.34;66.92;100760.44;6304952;22;20033;-59
2022/09/14 00:05:11;;;;;;;7.38;2.53;;;;;;;19.32;67.18;100762.72;6304884;22;20408;-59
2022/09/14 00:07:36;;;;;;;7.10;2.70;;;;;;;19.26;67.23;100753.56;6304547;22;20014;-59
2022/09/14 00:10:02;;;;;;;8.95;2.88;;;;;;;19.31;67.05;100745.00;6305133;22;20003;-59
2022/09/14 00:12:27;;;;;;;5.55;2.10;;;;;;;19.21;67.35;100739.59;6305111;22;20075;-59
2022/09/14 00:14:52;;;;;;;7.35;2.35;;;;;;;19.26;66.87;100744.28;6304706;22;20090;-59
2022/09/14 00:17:18;;;;;;;8.80;2.60;;;;;;;19.22;66.55;100741.28;6304055;22;20011;-59
2022/09/14 00:19:43;;;;;;;5.13;2.28;;;;;;;19.24;66.68;100738.97;6304584;22;20011;-59
2022/09/14 00:22:08;;;;;;;6.97;2.03;;;;;;;19.23;66.41;100742.09;6304812;22;20007;-59
2022/09/14 00:24:34;;;;;;;7.97;1.98;;;;;;;19.15;66.07;100740.03;6304248;22;20144;-59
2022/09/14 00:27:01;;;;;;;9.70;2.40;;;;;;;19.15;66.10;100735.22;6304656;22;20039;-59
2022/09/14 00:29:28;;;;;;;5.28;2.10;;;;;;;19.19;65.78;100741.06;6306515;22;20007;-59
2022/09/14 00:31:53;;;;;;;5.03;2.47;;;;;;;19.13;65.48;100743.13;6305689;22;20477;-59
2022/09/14 00:34:18;;;;;;;8.50;2.22;;;;;;;19.13;65.81;100743.97;6307161;22;20011;-59
2022/09/14 00:36:46;;;;;;;6.88;2.70;;;;;;;19.08;66.23;100737.63;6306505;22;20003;-59
2022/09/14 00:39:13;;;;;;;6.63;2.05;;;;;;;19.12;66.52;100739.50;6306926;22;20007;-60
2022/09/14 00:41:42;;;;;;;10.45;2.45;;;;;;;19.02;66.60;100728.47;6306497;22;20476;-59
2022/09/14 00:44:10;;;;;;;6.75;2.75;;;;;;;19.08;66.12;100723.56;6307455;22;20030;-59
2022/09/14 00:46:44;;;;;;;9.68;2.58;;;;;;;19.00;66.82;100718.66;6307208;22;20010;-59
2022/09/14 00:49:18;;;;;;;6.65;2.20;;;;;;;19.02;66.46;100719.16;6306702;22;20003;-59
2022/09/14 00:52:09;;;;;;;6.18;2.40;;;;;;;19.05;66.31;100718.56;6305669;22;20039;-59
2022/09/14 00:54:40;;;;;;;7.53;2.50;;;;;;;18.97;66.54;100705.22;6307125;22;20011;-58
2022/09/14 00:57:05;;;;;;;8.77;2.22;;;;;;;18.95;66.60;100705.53;6307354;22;20014;-59
2022/09/14 00:59:35;;;;;;;9.05;2.10;;;;;;;18.95;66.63;100693.47;6305858;22;20007;-59
2022/09/14 01:02:01;;;;;;;5.88;1.85;;;;;;;18.99;66.48;100702.94;6307028;22;20004;-59
2022/09/14 01:04:27;;;;;;;6.43;2.15;;;;;;;18.96;66.91;100686.69;6307065;22;20003;-59
2022/09/14 01:06:59;;;;;;;5.43;1.88;;;;;;;18.98;66.93;100684.38;6306262;22;20037;-59
2022/09/14 01:10:00;;;;;;;8.77;2.20;;;;;;;18.99;66.78;100681.28;6306585;22;20458;-59
2022/09/14 01:12:56;;;;;;;7.32;2.25;;;;;;;18.94;67.07;100683.34;6262131;22;20017;-59
2022/09/14 01:15:34;;;;;;;6.93;2.22;;;;;;;18.92;67.11;100678.03;6306385;22;20454;-60
2022/09/14 01:18:13;;;;;;;8.00;2.50;;;;;;;18.87;67.96;100672.53;6306986;22;19999;-59
2022/09/14 01:21:01;;;;;;;7.85;2.92;;;;;;;18.91;67.36;100667.13;6306363;22;19999;-59
2022/09/14 01:23:54;;;;;;;6.03;2.42;;;;;;;18.94;67.09;100669.28;6280009;22;20423;-59
2022/09/14 01:26:22;;;;;;;6.97;2.28;;;;;;;18.81;67.47;100674.59;6306694;22;20000;-59
2022/09/14 01:28:54;;;;;;;8.10;2.30;;;;;;;18.77;66.97;100687.63;6305963;22;20003;-59
2022/09/14 01:31:30;;;;;;;5.45;2.40;;;;;;;18.68;67.83;100677.41;6306628;22;20007;-59
2022/09/14 01:34:16;;;;;;;9.45;2.55;;;;;;;18.77;66.70;100681.16;6306232;22;20021;-59
2022/09/14 01:36:50;;;;;;;6.28;2.45;;;;;;;18.76;66.82;100688.78;6306539;22;20072;-59
2022/09/14 01:39:18;;;;;;;6.35;2.15;;;;;;;18.72;66.10;100679.28;6307150;22;19999;-59
2022/09/14 01:41:46;;;;;;;6.97;1.98;;;;;;;18.62;66.38;100682.25;6304859;22;20041;-59
2022/09/14 01:44:17;;;;;;;5.47;2.10;;;;;;;18.58;66.25;100679.25;6305850;22;20419;-59
2022/09/14 01:46:50;;;;;;;9.03;2.43;;;;;;;18.60;66.30;100679.78;6305989;22;20082;-59
2022/09/14 01:49:47;;;;;;;6.65;1.90;;;;;;;18.66;66.47;100669.25;6306012;22;20226;-59
2022/09/14 01:52:18;;;;;;;6.72;2.22;;;;;;;18.62;66.17;100669.03;6301064;22;20082;-59
2022/09/14 01:54:56;;;;;;;5.75;2.22;;;;;;;18.57;66.43;100660.72;6305705;22;20444;-59
2022/09/14 01:57:58;;;;;;;5.07;1.70;;;;;;;18.70;65.99;100667.50;6305223;22;20003;-59
2022/09/14 02:00:25;;;;;;;8.05;2.10;;;;;;;18.56;65.55;100661.03;6257017;22;20773;-59
2022/09/14 02:03:03;;;;;;;7.45;2.20;;;;;;;18.52;65.97;100660.00;6305725;22;20004;-59
2022/09/14 02:05:55;;;;;;;8.60;2.05;;;;;;;18.56;65.81;100661.88;6306247;22;20008;-59
2022/09/14 02:08:21;;;;;;;5.55;2.00;;;;;;;18.52;65.55;100657.19;6306938;22;20035;-59
2022/09/14 02:10:47;;;;;;;6.65;2.15;;;;;;;18.44;66.41;100661.56;6304963;22;20014;-59
2022/09/14 02:13:12;;;;;;;5.18;2.08;;;;;;;18.46;66.07;100664.03;6306346;22;20003;-59
2022/09/14 02:15:38;;;;;;;4.82;1.80;;;;;;;18.49;66.46;100667.06;6306163;22;19999;-59
2022/09/14 02:18:04;;;;;;;5.22;2.00;;;;;;;18.39;66.30;100662.50;6306404;22;20335;-59
2022/09/14 02:20:40;;;;;;;5.65;1.92;;;;;;;18.45;66.44;100659.56;6305631;22;20015;-60
2022/09/14 02:23:06;;;;;;;8.52;2.10;;;;;;;18.35;66.13;100663.41;6306032;22;20004;-59
2022/09/14 02:25:32;;;;;;;7.28;2.40;;;;;;;18.39;66.18;100659.69;6305992;22;20004;-59
2022/09/14 02:27:57;;;;;;;8.52;2.05;;;;;;;18.32;66.14;100661.22;6306640;22;20003;-59
2022/09/14 02:30:23;;;;;;;8.27;2.22;;;;;;;18.34;66.49;100659.75;6305455;22;20083;-59
2022/09/14 02:33:13;;;;;;;9.05;2.15;;;;;;;18.42;65.95;100660.19;6305820;22;20017;-59
2022/09/14 02:35:45;;;;;;;7.60;2.28;;;;;;;18.36;65.95;100668.72;6306655;22;20013;-59
2022/09/14 02:38:14;;;;;;;;;;;;;;;18.57;65.53;100659.88;6306328;22;20007;-59
2022/09/14 02:40:52;;;;;;;8.32;2.05;;;;;;;18.34;66.61;100664.53;6304930;22;20319;-60
2022/09/14 02:43:45;;;;;;;5.35;2.00;;;;;;;18.36;66.15;100657.47;6306995;22;20010;-60
2022/09/14 02:46:17;;;;;;;10.68;2.10;;;;;;;18.31;66.21;100660.41;6306153;22;20027;-60
2022/09/14 02:49:05;;;;;;;8.02;2.10;;;;;;;18.34;66.08;100662.56;6306081;22;20424;-59
2022/09/14 02:51:39;;;;;;;9.00;2.38;;;;;;;18.28;66.48;100663.81;6304971;22;20074;-59
2022/09/14 02:54:07;;;;;;;5.32;1.98;;;;;;;18.23;66.91;100661.09;6305942;22;20011;-59
2022/09/14 02:56:34;;;;;;;5.80;1.88;;;;;;;18.28;66.56;100655.38;6305284;22;20010;-59
2022/09/14 02:58:59;;;;;;;9.90;2.58;;;;;;;18.22;66.48;100655.78;6305639;22;20004;-59
2022/09/14 03:01:25;;;;;;;4.00;1.98;;;;;;;18.29;67.11;100648.63;6306001;22;20017;-59
2022/09/14 03:03:50;;;;;;;6.50;2.10;;;;;;;18.15;67.69;100644.94;6306578;22;20400;-59
2022/09/14 03:06:16;;;;;;;6.43;2.10;;;;;;;18.18;67.31;100637.88;6305098;22;20004;-59
2022/09/14 03:08:42;;;;;;;8.70;2.50;;;;;;;18.19;66.52;100645.16;6305884;22;20003;-59
2022/09/14 03:11:07;;;;;;;5.68;2.30;;;;;;;18.13;66.92;100633.19;6304943;22;19999;-59
2022/09/14 03:13:34;;;;;;;7.97;2.17;;;;;;;18.20;66.22;100636.44;6304738;22;20007;-59
2022/09/14 03:16:08;;;;;;;8.40;2.22;;;;;;;18.18;66.54;100633.09;6304762;22;20431;-59
2022/09/14 03:18:35;;;;;;;9.10;2.40;;;;;;;18.17;66.72;100631.44;6306062;22;20011;-59
2022/09/14 03:21:07;;;;;;;8.90;2.30;;;;;;;18.10;66.94;100631.84;6304748;22;20384;-61
2022/09/14 03:23:37;;;;;;;5.82;2.00;;;;;;;18.07;67.80;100628.81;6305995;22;20011;-60
2022/09/14 03:26:06;;;;;;;7.40;2.38;;;;;;;18.05;67.28;100634.75;6303824;22;20007;-59
2022/09/14 03:28:32;;;;;;;6.45;2.30;;;;;;;18.06;67.55;100630.78;6305549;22;20053;-59
2022/09/14 03:31:00;;;;;;;6.13;2.17;;;;;;;18.04;68.01;100623.81;6305084;22;20019;-59
2022/09/14 03:33:25;;;;;;;7.30;2.33;;;;;;;18.11;67.57;100625.06;6305419;22;20690;-59
2022/09/14 03:35:51;;;;;;;7.72;2.60;;;;;;;18.03;67.94;100614.53;6305643;22;20073;-59
2022/09/14 03:38:16;;;;;;;7.75;2.60;;;;;;;18.03;68.00;100608.94;6305691;22;20074;-59
2022/09/14 03:40:41;;;;;;;5.93;2.33;;;;;;;18.05;67.81;100605.81;6304127;22;20719;-59
2022/09/14 03:43:07;;;;;;;4.88;2.17;;;;;;;18.06;67.51;100611.13;6304972;22;20072;-59
2022/09/14 03:45:35;;;;;;;4.82;2.20;;;;;;;18.00;67.44;100603.94;6305320;22;20044;-59
2022/09/14 03:48:01;;;;;;;5.55;1.98;;;;;;;18.04;66.91;100598.56;6304848;22;20399;-58
2022/09/14 03:50:26;;;;;;;5.28;2.30;;;;;;;18.04;66.92;100605.00;6305053;22;20052;-59
2022/09/14 03:52:51;;;;;;;8.52;2.20;;;;;;;18.03;66.37;100592.06;6305077;22;20030;-59
2022/09/14 03:55:18;;;;;;;7.07;2.25;;;;;;;18.01;66.56;100599.16;6304778;22;20017;-59
2022/09/14 03:57:43;;;;;;;5.72;1.90;;;;;;;17.96;67.35;100602.91;6304991;22;20011;-58
2022/09/14 04:00:10;;;;;;;8.13;2.47;;;;;;;17.96;66.77;100597.28;6305567;22;19995;-58
2022/09/14 04:02:35;;;;;;;7.97;2.08;;;;;;;17.98;66.93;100592.19;6304826;22;20008;-59
2022/09/14 04:05:01;;;;;;;12.18;2.58;;;;;;;17.99;66.53;100591.03;6305558;22;20728;-59
2022/09/14 04:07:26;;;;;;;7.03;2.15;;;;;;;17.95;66.90;100589.16;6305385;22;20439;-58
2022/09/14 04:09:51;;;;;;;3.97;1.80;;;;;;;17.92;66.71;100587.81;6305010;22;20013;-58
2022/09/14 04:12:17;;;;;;;6.03;2.20;;;;;;;17.89;67.33;100586.44;6305745;22;20014;-59
2022/09/14 04:14:42;;;;;;;6.13;1.98;;;;;;;17.89;67.27;100582.81;6305191;22;20053;-60
2022/09/14 04:17:07;;;;;;;7.70;2.40;;;;;;;17.85;67.01;100584.56;6304033;22;20004;-60
2022/09/14 04:19:33;;;;;;;10.40;2.05;;;;;;;17.86;67.28;100589.88;6304903;22;20009;-60
2022/09/14 04:21:59;;;;;;;5.53;1.80;;;;;;;17.77;67.30;100583.31;6305996;22;20022;-60
2022/09/14 04:24:24;;;;;;;6.45;2.55;;;;;;;17.83;67.31;100587.66;6304737;22;20419;-60
2022/09/14 04:26:50;;;;;;;8.57;2.15;;;;;;;17.82;67.27;100580.41;6304743;22;20361;-60
2022/09/14 04:29:15;;;;;;;6.25;1.92;;;;;;;17.77;67.33;100582.47;6304108;22;20015;-60
2022/09/14 04:31:40;;;;;;;4.97;2.05;;;;;;;17.76;67.32;100576.00;6303709;22;20084;-60
2022/09/14 04:34:06;;;;;;;7.53;2.20;;;;;;;17.80;67.07;100570.59;6304226;22;20304;-60
2022/09/14 04:36:32;;;;;;;5.13;1.65;;;;;;;17.82;67.05;100579.56;6305210;22;19999;-60
2022/09/14 04:38:59;;;;;;;7.53;2.20;;;;;;;17.81;66.72;100570.31;6304599;22;20757;-60
2022/09/14 04:41:25;;;;;;;9.02;1.80;;;;;;;17.74;66.59;100569.84;6305241;22;20007;-60
2022/09/14 04:43:51;;;;;;;8.20;2.00;;;;;;;17.69;66.75;100567.13;6304482;22;20007;-59
2022/09/14 04:46:20;;;;;;;12.48;2.22;;;;;;;17.73;66.76;100568.19;6304159;22;20039;-60
2022/09/14 04:48:45;;;;;;;7.70;2.22;;;;;;;17.69;67.31;100571.94;6303879;22;20325;-60
2022/09/14 04:51:16;;;;;;;8.95;2.38;;;;;;;17.72;67.19;100566.50;6304429;22;20014;-60
2022/09/14 04:53:42;;;;;;;10.43;1.83;;;;;;;17.71;67.14;100564.00;6304600;22;20018;-60
2022/09/14 04:56:09;;;;;;;7.75;2.15;;;;;;;17.65;67.71;100566.91;6304835;22;20007;-60
2022/09/14 04:58:39;;;;;;;7.35;2.20;;;;;;;17.66;67.88;100560.16;6304664;22;20007;-60
2022/09/14 05:01:07;;;;;;;5.93;1.80;;;;;;;17.65;66.43;100550.06;6303698;22;20010;-60
2022/09/14 05:03:33;;;;;;;8.73;2.03;;;;;;;17.59;67.21;100554.09;6304695;22;20007;-60
2022/09/14 05:06:02;;;;;;;7.68;2.00;;;;;;;17.56;66.67;100549.09;6304175;22;20007;-60
2022/09/14 05:08:28;;;;;;;5.43;1.85;;;;;;;17.62;67.27;100547.06;6304322;22;20412;-60
2022/09/14 05:10:54;;;;;;;10.23;2.03;;;;;;;17.60;66.56;100543.72;6304948;22;20195;-60
2022/09/14 05:13:20;;;;;;;5.97;1.77;;;;;;;17.51;66.79;100542.75;6304374;22;19999;-60
2022/09/14 05:15:45;;;;;;;6.25;1.83;;;;;;;17.59;66.54;100542.03;6304009;22;20007;-60
2022/09/14 05:18:10;;;;;;;5.13;1.70;;;;;;;17.54;66.75;100542.97;6305911;22;20016;-60
2022/09/14 05:20:36;;;;;;;5.53;1.88;;;;;;;17.49;67.09;100536.59;6305009;22;20003;-60
2022/09/14 05:23:01;;;;;;;7.03;1.98;;;;;;;17.50;66.86;100544.72;6306390;22;20319;-60
2022/09/14 05:25:26;;;;;;;6.68;1.80;;;;;;;17.46;66.94;100549.28;6306704;22;20015;-60
2022/09/14 05:27:52;;;;;;;2.60;1.70;;;;;;;17.36;67.16;100553.09;6306503;22;20007;-60
2022/09/14 05:30:20;;;;;;;7.05;2.13;;;;;;;17.40;68.06;100559.75;6303381;22;20013;-60
2022/09/14 05:32:45;;;;;;;8.25;2.08;;;;;;;17.34;67.55;100554.56;6301429;22;20094;-58
2022/09/14 05:35:10;;;;;;;5.60;2.22;;;;;;;17.33;68.49;100556.53;6304087;22;20038;-58
2022/09/14 05:37:35;;;;;;;5.15;1.98;;;;;;;17.36;68.43;100549.44;6305906;22;20007;-58
2022/09/14 05:40:01;;;;;;;9.43;2.25;;;;;;;17.38;67.86;100547.19;6300144;22;20293;-58
2022/09/14 05:42:27;;;;;;;7.25;2.08;;;;;;;17.40;67.93;100554.13;6302723;22;20003;-58
2022/09/14 05:44:52;;;;;;;7.53;1.95;;;;;;;17.43;67.82;100555.50;6302071;22;20011;-58
2022/09/14 05:47:20;;;;;;;6.38;2.13;;;;;;;17.47;67.68;100559.38;6300221;22;20475;-58
2022/09/14 05:49:46;;;;;;;5.43;2.15;;;;;;;17.42;68.22;100557.47;6299616;22;20424;-59
2022/09/14 05:52:11;;;;;;;8.05;2.40;;;;;;;17.46;68.02;100563.31;6302962;22;20009;-59
2022/09/14 05:54:36;;;;;;;7.07;2.20;;;;;;;17.43;68.18;100561.94;6300903;22;20113;-58
2022/09/14 05:57:02;;;;;;;6.95;2.38;;;;;;;17.44;68.13;100565.59;6299409;22;20011;-59
2022/09/14 05:59:30;;;;;;;5.68;2.17;;;;;;;17.42;68.17;100571.50;6302243;22;20403;-60
2022/09/14 06:01:56;;;;;;;4.63;1.85;;;;;;;17.33;68.81;100556.53;6304851;22;20013;-59
2022/09/14 06:04:24;;;;;;;6.53;2.13;;;;;;;17.35;68.82;100557.03;6304517;22;20007;-60
2022/09/14 06:06:50;;;;;;;6.93;2.30;;;;;;;17.36;69.44;100566.28;6305448;22;20082;-60
2022/09/14 06:09:15;;;;;;;8.20;2.22;;;;;;;17.33;69.44;100567.75;6303964;22;20029;-59
2022/09/14 06:11:41;;;;;;;5.70;2.10;;;;;;;17.37;68.94;100568.81;6304203;22;20437;-60
2022/09/14 06:14:06;;;;;;;7.43;2.65;;;;;;;17.37;68.86;100574.41;6305169;22;19999;-59
2022/09/14 06:16:35;;;;;;;8.30;2.30;;;;;;;17.29;69.60;100579.84;6303176;22;20364;-59
2022/09/14 06:19:01;;;;;;;5.00;2.00;;;;;;;17.32;69.56;100580.09;6305730;22;20305;-60
2022/09/14 06:21:33;;;;;;;3.63;2.10;;;;;;;17.31;69.51;100586.84;6305632;22;20029;-59
2022/09/14 06:23:59;;;;;;;4.82;2.17;;;;;;;17.24;69.14;100580.78;6304439;22;20362;-60
2022/09/14 06:26:25;;;;;;;5.65;2.30;;;;;;;17.26;69.55;100589.75;6305467;22;20007;-60
2022/09/14 06:28:51;;;;;;;5.95;2.63;;;;;;;17.24;69.78;100582.75;6304219;22;20007;-58
2022/09/14 06:31:17;;;;;;;8.95;2.72;;;;;;;17.27;69.96;100584.97;6304381;22;20023;-58
2022/09/14 06:33:46;;;;;;;7.45;2.28;;;;;;;17.26;69.77;100577.69;6304913;22;20408;-58
2022/09/14 06:36:15;;;;;;;4.90;2.40;;;;;;;17.21;69.46;100570.16;6304825;22;20003;-58
2022/09/14 06:38:41;;;;;;;4.35;2.17;;;;;;;17.29;69.44;100577.06;6302704;22;19995;-58
2022/09/14 06:41:08;;;;;;;7.57;2.15;;;;;;;17.28;69.58;100576.22;6303104;22;20008;-58
2022/09/14 06:43:36;;;;;;;7.97;2.33;;;;;;;17.21;69.74;100570.16;6302003;22;20097;-58
2022/09/14 06:46:13;;;;;;;5.35;2.10;;;;;;;17.27;69.40;100568.97;6302739;22;20496;-58
2022/09/14 06:48:45;;;;;;;7.68;2.38;;;;;;;17.26;70.05;100566.47;6304399;22;20010;-58
2022/09/14 06:51:29;;;;;;;4.65;1.80;;;;;;;17.31;69.38;100558.78;6303879;22;20006;-58
2022/09/14 06:53:58;;;;;;;9.15;2.70;;;;;;;17.16;70.05;100556.22;6300927;22;20007;-58
2022/09/14 06:56:27;;;;;;;6.15;2.22;;;;;;;17.16;69.92;100548.63;6304909;22;20007;-58
2022/09/14 06:58:52;;;;;;;6.22;2.13;;;;;;;17.13;69.63;100552.06;6304178;22;19999;-57
2022/09/14 07:01:20;;;;;;;7.63;2.13;;;;;;;17.14;69.61;100550.09;6302157;22;20007;-57
2022/09/14 07:03:47;;;;;;;6.43;1.83;;;;;;;17.18;69.67;100543.56;6304786;22;20007;-57
2022/09/14 07:06:15;;;;;;;5.53;1.98;;;;;;;17.20;70.07;100545.22;6302393;22;20006;-57
2022/09/14 07:08:41;;;;;;;4.30;1.95;;;;;;;17.07;70.17;100546.84;6303790;22;20007;-57
2022/09/14 07:11:20;;;;;;;6.40;1.98;;;;;;;17.06;70.49;100545.19;6303547;22;20076;-58
2022/09/14 07:13:46;;;;;;;4.35;1.80;;;;;;;17.12;70.07;100543.94;6302926;22;20721;-58
2022/09/14 07:16:13;;;;;;;3.85;1.92;;;;;;;17.08;70.16;100545.69;6304673;22;20009;-58
2022/09/14 07:18:39;;;;;;;4.90;1.70;;;;;;;17.06;70.24;100534.81;6303794;22;20071;-58
2022/09/14 07:21:10;;;;;;;4.85;2.00;;;;;;;17.06;70.52;100531.16;6303308;22;20094;-58
2022/09/14 07:23:38;;;;;;;3.55;1.75;;;;;;;17.05;70.57;100538.72;6304687;22;20106;-58
2022/09/14 07:26:09;;;;;;;5.78;2.40;;;;;;;17.08;70.45;100537.28;6304930;22;20005;-58
2022/09/14 07:28:35;;;;;;;8.18;2.30;;;;;;;17.08;70.38;100538.13;6305311;22;20002;-58
2022/09/14 07:31:02;;;;;;;6.70;2.28;;;;;;;17.08;70.55;100538.13;6305141;22;20038;-58
2022/09/14 07:33:27;;;;;;;9.57;2.40;;;;;;;17.01;70.37;100537.66;6304700;22;20007;-58
2022/09/14 07:35:53;;;;;;;5.55;1.90;;;;;;;17.08;70.53;100534.47;6305625;22;20007;-59
2022/09/14 07:38:22;;;;;;;4.65;2.45;;;;;;;17.04;70.55;100545.47;6303527;22;20316;-58
2022/09/14 07:40:47;;;;;;;8.00;2.88;;;;;;;17.10;70.79;100538.66;6304507;22;20031;-58
2022/09/14 07:43:12;;;;;;;4.78;1.83;;;;;;;17.10;70.66;100535.84;6305036;22;20435;-59
2022/09/14 07:45:38;;;;;;;7.95;2.10;;;;;;;17.02;70.82;100528.13;6304866;22;20003;-58
2022/09/14 07:48:04;;;;;;;6.07;2.38;;;;;;;17.09;71.27;100534.16;6304892;22;20007;-58
2022/09/14 07:50:30;;;;;;;6.80;2.30;;;;;;;17.09;70.85;100533.34;6305126;22;20061;-58
2022/09/14 07:52:56;;;;;;;7.43;2.33;;;;;;;17.09;70.45;100536.13;6304783;22;20424;-58
2022/09/14 07:55:21;;;;;;;4.82;2.60;;;;;;;17.07;70.54;100533.66;6304258;22;20427;-59
2022/09/14 07:57:47;;;;;;;5.57;2.20;;;;;;;17.01;71.13;100537.66;6305216;22;20034;-58
2022/09/14 08:00:13;;;;;;;4.10;2.50;;;;;;;17.06;70.89;100523.59;6304591;22;19999;-59
2022/09/14 08:02:39;;;;;;;5.20;2.58;;;;;;;17.09;70.71;100525.75;6303792;22;20092;-58
2022/09/14 08:05:04;;;;;;;4.65;2.28;;;;;;;17.09;70.89;100522.13;6305300;22;20007;-58
2022/09/14 08:07:30;;;;;;;7.93;2.70;;;;;;;17.03;70.74;100535.41;6303540;22;20420;-58
2022/09/14 08:09:55;;;;;;;5.00;2.40;;;;;;;17.04;71.05;100533.44;6304753;22;20039;-59
2022/09/14 08:12:21;;;;;;;6.10;2.60;;;;;;;16.98;70.29;100527.06;6305025;22;20362;-58
2022/09/14 08:14:46;;;;;;;7.63;2.38;;;;;;;16.95;70.64;100529.66;6303277;22;20007;-58
2022/09/14 08:17:11;;;;;;;7.45;2.53;;;;;;;16.90;71.28;100527.75;6304405;22;20052;-58
2022/09/14 08:19:37;;;;;;;5.85;2.35;;;;;;;16.95;70.81;100524.88;6304699;22;20003;-59
2022/09/14 08:22:03;;;;;;;5.63;2.60;;;;;;;16.96;70.95;100520.09;6303273;22;20007;-59
2022/09/14 08:24:29;;;;;;;4.63;2.38;;;;;;;16.95;71.04;100532.47;6303714;22;20423;-59
2022/09/14 08:26:54;;;;;;;6.13;2.63;;;;;;;16.98;71.03;100529.88;6304400;22;20015;-59
2022/09/14 08:29:20;;;;;;;6.30;3.17;;;;;;;16.94;71.38;100531.63;6302939;22;20083;-59
2022/09/14 08:31:46;;;;;;;7.30;2.78;;;;;;;17.00;71.36;100530.41;6302155;22;20011;-59
2022/09/14 08:34:12;;;;;;;6.55;2.85;;;;;;;17.01;71.23;100523.63;6303185;22;20164;-59
2022/09/14 08:36:39;;;;;;;6.45;3.08;;;;;;;17.02;71.52;100530.09;6301968;22;20010;-59
2022/09/14 08:39:08;;;;;;;5.57;3.10;;;;;;;17.02;71.68;100536.53;6304120;22;20003;-59
2022/09/14 08:41:36;;;;;;;7.93;3.20;;;;;;;17.03;71.10;100528.97;6304141;22;20022;-59
2022/09/14 08:44:15;;;;;;;7.35;3.20;;;;;;;17.06;70.74;100536.78;6303744;22;20026;-59
2022/09/14 08:46:45;;;;;;;4.78;3.20;;;;;;;17.04;71.00;100534.25;6303352;22;20003;-58
2022/09/14 08:49:25;;;;;;;7.00;3.38;;;;;;;17.01;71.47;100542.44;6303942;22;20049;-58
2022/09/14 08:51:51;;;;;;;7.50;3.60;;;;;;;17.06;71.13;100548.00;6304819;22;20007;-59
2022/09/14 08:54:16;;;;;;;7.95;3.47;;;;;;;16.99;71.27;100539.13;6305510;22;20007;-59
2022/09/14 08:56:47;;;;;;;7.35;3.80;;;;;;;16.97;71.77;100547.81;6305034;22;20017;-58
2022/09/14 08:59:42;;;;;;;6.63;4.13;;;;;;;17.06;71.32;100543.22;6306270;22;20007;-59
2022/09/14 09:02:19;;;;;;;10.10;5.07;;;;;;;17.01;71.33;100536.84;6306175;22;20045;-59
2022/09/14 09:05:07;;;;;;;9.25;5.25;;;;;;;17.02;71.63;100538.53;6305476;22;20038;-58
2022/09/14 09:07:55;;;;;;;9.27;5.55;;;;;;;17.00;72.23;100543.59;6305893;22;20007;-58
2022/09/14 09:10:22;;;;;;;6.47;5.05;;;;;;;17.02;71.97;100541.31;6304513;22;20053;-58
2022/09/14 09:12:56;;;;;;;9.20;5.40;;;;;;;17.00;72.02;100544.41;6305022;22;20412;-58
2022/09/14 09:15:29;;;;;;;9.25;5.50;;;;;;;17.05;71.78;100540.69;6306083;22;20014;-58
2022/09/14 09:18:03;;;;;;;8.57;5.25;;;;;;;17.03;71.85;100541.00;6304503;22;20086;-58
2022/09/14 09:20:32;;;;;;;8.73;5.45;;;;;;;17.02;71.86;100536.53;6305647;22;20038;-58
2022/09/14 09:23:14;;;;;;;11.73;5.80;;;;;;;17.05;72.01;100537.88;6305897;22;20110;-58
2022/09/14 09:25:57;;;;;;;8.02;5.35;;;;;;;17.06;71.64;100537.59;6305100;22;20018;-58
2022/09/14 09:28:25;;;;;;;8.88;5.50;;;;;;;17.02;71.75;100530.09;6304840;22;20392;-58
2022/09/14 09:30:52;;;;;;;10.32;5.38;;;;;;;17.03;71.84;100535.41;6305615;22;20007;-58
2022/09/14 09:33:22;;;;;;;9.50;5.53;;;;;;;17.01;71.66;100537.66;6304714;22;20090;-58
2022/09/14 09:35:52;;;;;;;8.30;5.40;;;;;;;16.98;71.54;100526.22;6305419;22;20007;-58
2022/09/14 09:38:23;;;;;;;8.50;5.63;;;;;;;16.91;71.82;100524.66;6306098;22;20007;-58
2022/09/14 09:41:15;;;;;;;10.38;5.57;;;;;;;17.01;71.61;100523.63;6305267;22;20035;-58
2022/09/14 09:44:00;;;;;;;12.00;6.15;;;;;;;17.01;71.91;100528.41;6288898;22;20015;-58
2022/09/14 09:46:37;;;;;;;8.80;5.80;;;;;;;16.96;72.42;100534.13;6304971;22;20358;-58
2022/09/14 09:49:19;;;;;;;10.63;6.18;;;;;;;16.99;72.43;100530.72;6305769;22;20054;-59
2022/09/14 09:51:44;;;;;;;10.53;6.60;;;;;;;17.02;72.79;100530.94;6305061;22;20449;-59
2022/09/14 09:54:12;;;;;;;10.93;6.43;;;;;;;17.01;73.15;100531.22;6305069;22;20007;-59
2022/09/14 09:56:49;;;;;;;12.45;6.50;;;;;;;17.01;72.76;100534.03;6304960;22;20013;-58
2022/09/14 09:59:43;;;;;;;9.25;5.68;;;;;;;17.10;72.09;100530.25;6305360;22;20007;-59
2022/09/14 10:02:26;;;;;;;12.50;6.05;;;;;;;17.06;72.19;100537.59;6299476;22;20098;-59
2022/09/14 10:05:00;;;;;;;10.77;6.28;;;;;;;16.98;72.30;100532.69;6304765;22;20006;-59
2022/09/14 10:07:26;;;;;;;8.38;5.47;;;;;;;16.95;72.03;100538.91;6303687;22;20082;-59
2022/09/14 10:10:08;;;;;;;6.95;5.70;;;;;;;17.01;72.16;100540.47;6304296;22;20412;-58
2022/09/14 10:12:35;;;;;;;9.00;6.15;;;;;;;16.95;72.69;100535.25;6304356;22;20377;-59
2022/09/14 10:15:06;;;;;;;8.98;5.95;;;;;;;16.96;73.14;100540.56;6304219;22;20010;-59
2022/09/14 10:17:32;;;;;;;7.82;5.82;;;;;;;16.99;73.11;100533.50;6304546;22;20423;-59
2022/09/14 10:19:58;;;;;;;6.95;6.10;;;;;;;17.05;73.35;100535.91;6305806;22;20003;-58
2022/09/14 10:22:29;;;;;;;8.93;6.10;;;;;;;17.05;72.61;100533.09;6303974;22;19995;-58
2022/09/14 10:25:01;;;;;;;7.95;5.45;;;;;;;17.02;72.38;100532.91;6305353;22;20016;-58
2022/09/14 10:27:51;;;;;;;11.80;6.30;;;;;;;17.07;72.28;100530.03;6304129;22;20491;-58
2022/09/14 10:30:19;;;;;;;8.27;5.70;;;;;;;17.02;72.82;100530.09;6302365;22;20003;-58
2022/09/14 10:33:05;;;;;;;9.82;5.70;;;;;;;17.07;72.42;100536.47;6302999;22;20015;-59
2022/09/14 10:35:37;;;;;;;10.68;6.78;;;;;;;17.01;73.52;100531.22;6303471;22;20026;-58
2022/09/14 10:38:18;;;;;;;8.13;6.07;;;;;;;17.06;73.06;100534.81;6304300;22;20013;-58
2022/09/14 10:40:49;;;;;;;8.25;6.10;;;;;;;17.05;73.52;100532.28;6304112;22;20047;-59
2022/09/14 10:43:15;;;;;;;9.45;6.22;;;;;;;17.04;73.17;100530.63;6303966;22;20090;-59
2022/09/14 10:45:57;;;;;;;9.45;6.28;;;;;;;17.04;73.33;100525.84;6303171;22;20449;-58
2022/09/14 10:48:42;;;;;;;9.53;6.67;;;;;;;17.06;73.47;100522.75;6303927;22;20007;-59
2022/09/14 10:51:38;;;;;;;7.68;5.75;;;;;;;17.07;72.69;100522.44;6303461;22;20015;-58
2022/09/14 10:54:30;;;;;;;7.90;6.13;;;;;;;17.02;72.77;100524.50;6304524;22;20457;-58
2022/09/14 10:56:58;;;;;;;9.23;5.97;;;;;;;17.05;72.63;100533.09;6303629;22;20010;-59
2022/09/14 10:59:48;;;;;;;9.80;6.20;;;;;;;17.03;72.96;100523.34;6303063;22;20018;-59
2022/09/14 11:02:41;;;;;;;8.18;6.72;;;;;;;17.09;73.31;100527.72;6304097;22;20010;-60
2022/09/14 11:05:20;;;;;;;8.77;6.45;;;;;;;17.06;72.79;100522.75;6303218;22;20007;-60
2022/09/14 11:08:10;;;;;;;9.65;6.05;;;;;;;17.03;73.18;100517.75;6304561;22;20029;-59
2022/09/14 11:11:03;;;;;;;8.10;5.50;;;;;;;17.07;72.31;100518.81;6303551;22;20017;-60
2022/09/14 11:14:13;;;;;;;7.93;5.63;;;;;;;17.09;72.40;100516.50;6303092;22;20496;-59
2022/09/14 11:16:58;;;;;;;8.80;5.82;;;;;;;17.01;72.12;100509.63;6210053;23;20523;-59
2022/09/14 11:19:45;;;;;;;6.63;5.20;;;;;;;17.03;72.75;100509.34;6208360;23;20008;-59
2022/09/14 11:22:19;;;;;;;7.13;5.18;;;;;;;17.00;72.77;100505.16;6281794;22;20366;-59
2022/09/14 11:24:51;;;;;;;5.57;4.68;;;;;;;17.03;72.64;100507.38;6299918;22;20082;-59
2022/09/14 11:27:38;;;;;;;7.68;5.30;;;;;;;17.04;72.58;100502.59;6302097;22;20009;-59
2022/09/14 11:30:08;;;;;;;7.30;5.20;;;;;;;16.99;72.71;100502.66;6301768;22;20006;-59
2022/09/14 11:32:40;;;;;;;7.18;4.70;;;;;;;17.05;72.86;100498.63;6302045;22;20042;-59
2022/09/14 11:35:24;;;;;;;7.13;5.10;;;;;;;17.04;72.71;100502.59;6302953;22;20011;-59
2022/09/14 11:38:08;;;;;;;5.70;4.22;;;;;;;17.03;72.02;100496.16;6302370;22;20014;-60
2022/09/14 11:40:46;;;;;;;6.28;3.78;;;;;;;17.03;71.79;100495.31;6301278;22;20003;-59